Time;durP1;ratioP1;P1;durP2;ratioP2;P2;SDS_P1;SDS_P2;PMS_P1;PMS_P2;Temp;Humidity;BMP_temperature;BMP_pressure;BME280_temperature;BME280_humidity;BME280_pressure;Samples;Min_cycle;Max_cycle;Signal;HPM_P1;HPM_P2
2022/11/02 00:01:08;;;;;;;23.47;19.50;;;;;;;;;;6626292;28;20494;-82
2022/11/02 00:04:18;;;;;;;26.83;19.43;;;;;;;;;;6625478;28;20168;-82
2022/11/02 00:07:28;;;;;;;23.23;18.83;;;;;;;;;;6625289;28;20167;-82
2022/11/02 00:10:39;;;;;;;24.53;19.53;;;;;;;;;;6626431;28;20203;-82
2022/11/02 00:13:49;;;;;;;24.70;19.40;;;;;;;;;;6625135;28;20206;-82
2022/11/02 00:16:59;;;;;;;23.53;19.03;;;;;;;;;;6625140;28;20222;-82
2022/11/02 00:20:11;;;;;;;22.53;18.20;;;;;;;;;;6625798;28;20628;-82
2022/11/02 00:23:21;;;;;;;26.17;18.47;;;;;;;;;;6625703;28;20510;-82
2022/11/02 00:26:33;;;;;;;25.20;19.00;;;;;;;;;;6607465;28;20176;-82
2022/11/02 00:29:43;;;;;;;29.93;21.90;;;;;;;;;;6625980;28;20172;-82
2022/11/02 00:32:54;;;;;;;28.80;22.60;;;;;;;;;;6624757;28;20733;-82
2022/11/02 00:36:04;;;;;;;34.23;24.93;;;;;;;;;;6624651;28;20175;-82
2022/11/02 00:39:14;;;;;;;29.87;22.77;;;;;;;;;;6624978;28;20249;-82
2022/11/02 00:42:25;;;;;;;31.60;23.30;;;;;;;;;;6624944;28;20646;-82
2022/11/02 00:45:35;;;;;;;27.23;20.80;;;;;;;;;;6624462;28;20168;-82
2022/11/02 00:48:45;;;;;;;24.47;19.10;;;;;;;;;;6624426;28;20206;-82
2022/11/02 00:51:56;;;;;;;28.53;20.43;;;;;;;;;;6624519;28;20200;-82
2022/11/02 00:55:07;;;;;;;28.20;20.33;;;;;;;;;;6607375;28;20179;-82
2022/11/02 00:58:18;;;;;;;26.90;19.63;;;;;;;;;;6625322;28;20243;-82
2022/11/02 01:01:28;;;;;;;25.70;20.57;;;;;;;;;;6624371;28;20258;-82
2022/11/02 01:04:38;;;;;;;26.90;21.23;;;;;;;;;;6624724;28;20581;-82
2022/11/02 01:07:49;;;;;;;26.10;20.27;;;;;;;;;;6624498;28;20191;-82
2022/11/02 01:11:09;;;;;;;25.70;20.20;;;;;;;;;;6625236;28;20515;-82
2022/11/02 01:14:20;;;;;;;26.77;20.63;;;;;;;;;;6623695;28;20251;-82
2022/11/02 01:17:30;;;;;;;28.87;21.87;;;;;;;;;;6623755;28;20183;-82
2022/11/02 01:20:41;;;;;;;30.03;21.80;;;;;;;;;;6623927;28;20179;-81
2022/11/02 01:23:51;;;;;;;31.47;22.37;;;;;;;;;;6623497;28;20202;-81
2022/11/02 01:27:01;;;;;;;29.93;23.00;;;;;;;;;;6623426;28;20229;-82
2022/11/02 01:30:12;;;;;;;29.97;22.97;;;;;;;;;;6624482;28;20567;-81
2022/11/02 01:33:22;;;;;;;30.50;23.80;;;;;;;;;;6623549;28;20234;-81
2022/11/02 01:36:33;;;;;;;31.33;22.53;;;;;;;;;;6624297;28;20263;-81
2022/11/02 01:39:43;;;;;;;31.30;23.73;;;;;;;;;;6623497;28;20224;-82
2022/11/02 01:42:53;;;;;;;32.87;21.57;;;;;;;;;;6623413;28;20230;-82
2022/11/02 01:46:13;;;;;;;30.13;22.30;;;;;;;;;;6623092;28;20206;-83
2022/11/02 01:49:24;;;;;;;31.03;22.67;;;;;;;;;;6624072;28;20298;-82
2022/11/02 01:52:35;;;;;;;31.70;23.77;;;;;;;;;;6622781;28;20203;-82
2022/11/02 01:55:46;;;;;;;30.07;22.83;;;;;;;;;;6623093;28;20569;-82
2022/11/02 01:58:58;;;;;;;32.10;24.07;;;;;;;;;;6623652;28;20224;-82
2022/11/02 02:02:12;;;;;;;29.80;22.10;;;;;;;;;;6622673;28;20225;-82
2022/11/02 02:05:23;;;;;;;33.20;23.67;;;;;;;;;;6623328;28;20171;-82
2022/11/02 02:08:35;;;;;;;38.73;24.80;;;;;;;;;;6622354;28;20249;-82
2022/11/02 02:11:45;;;;;;;36.30;24.77;;;;;;;;;;6622333;28;20199;-82
2022/11/02 02:14:56;;;;;;;39.63;25.63;;;;;;;;;;6605572;28;20198;-82
2022/11/02 02:18:12;;;;;;;38.97;26.07;;;;;;;;;;6622334;28;20297;-83
2022/11/02 02:21:31;;;;;;;38.80;24.50;;;;;;;;;;6622282;28;20243;-83
2022/11/02 02:24:57;;;;;;;43.77;27.13;;;;;;;;;;6604760;28;20644;-83
2022/11/02 02:28:10;;;;;;;39.43;25.23;;;;;;;;;;6623255;28;20152;-82
2022/11/02 02:31:36;;;;;;;43.73;27.00;;;;;;;;;;6623159;28;20554;-82
2022/11/02 02:34:55;;;;;;;38.37;25.37;;;;;;;;;;6622423;28;20176;-82
2022/11/02 02:38:25;;;;;;;40.50;27.00;;;;;;;;;;6622694;28;20255;-82
2022/11/02 02:41:40;;;;;;;40.97;25.83;;;;;;;;;;6622040;28;20188;-82
2022/11/02 02:45:12;;;;;;;44.83;27.33;;;;;;;;;;6622641;28;20250;-82
2022/11/02 02:48:24;;;;;;;44.60;26.40;;;;;;;;;;6621887;28;20172;-82
2022/11/02 02:51:36;;;;;;;44.67;27.83;;;;;;;;;;6622116;28;20253;-83
2022/11/02 02:54:47;;;;;;;46.77;27.67;;;;;;;;;;6622157;28;20204;-83
2022/11/02 02:57:59;;;;;;;47.37;27.40;;;;;;;;;;6604897;28;20679;-83
2022/11/02 03:01:11;;;;;;;39.30;25.33;;;;;;;;;;6622457;28;20182;-83
2022/11/02 03:04:21;;;;;;;51.57;28.67;;;;;;;;;;6621668;28;20183;-83
2022/11/02 03:07:32;;;;;;;50.83;27.07;;;;;;;;;;6621591;28;20173;-83
2022/11/02 03:10:46;;;;;;;49.40;27.33;;;;;;;;;;6604170;28;20182;-83
2022/11/02 03:13:56;;;;;;;47.00;27.87;;;;;;;;;;6621450;28;20203;-83
2022/11/02 03:17:13;;;;;;;46.73;27.53;;;;;;;;;;6621644;28;20197;-83
2022/11/02 03:20:29;;;;;;;48.80;28.47;;;;;;;;;;6624426;28;20179;-83
2022/11/02 03:23:50;;;;;;;49.83;27.97;;;;;;;;;;6627020;28;20172;-83
2022/11/02 03:27:18;;;;;;;53.00;29.10;;;;;;;;;;6627170;28;20171;-83
2022/11/02 03:30:32;;;;;;;52.73;28.40;;;;;;;;;;6627499;28;20212;-83
2022/11/02 03:33:45;;;;;;;52.57;27.80;;;;;;;;;;6626149;28;20202;-83
2022/11/02 03:37:01;;;;;;;51.97;29.53;;;;;;;;;;6626510;28;20207;-83
2022/11/02 03:40:26;;;;;;;52.87;29.40;;;;;;;;;;6626445;28;20172;-82
2022/11/02 03:43:37;;;;;;;48.40;28.90;;;;;;;;;;6627050;28;20175;-83
2022/11/02 03:46:48;;;;;;;56.97;28.63;;;;;;;;;;6626006;28;20190;-82
2022/11/02 03:50:00;;;;;;;57.07;30.00;;;;;;;;;;6626539;28;20199;-83
2022/11/02 03:53:13;;;;;;;58.03;29.73;;;;;;;;;;6627200;28;20206;-82
2022/11/02 03:56:27;;;;;;;51.57;27.30;;;;;;;;;;6625728;28;20179;-82
2022/11/02 03:59:38;;;;;;;52.33;28.57;;;;;;;;;;6608095;28;20314;-82
2022/11/02 04:02:50;;;;;;;63.63;29.13;;;;;;;;;;6608094;28;20175;-83
2022/11/02 04:06:00;;;;;;;53.17;29.27;;;;;;;;;;6625826;28;20183;-83
2022/11/02 04:09:10;;;;;;;56.53;29.43;;;;;;;;;;6625299;28;20184;-83
2022/11/02 04:15:50;;;;;;;57.03;27.23;;;;;;;;;;6626043;28;20175;-82
2022/11/02 04:25:58;;;;;;;53.33;27.87;;;;;;;;;;6625435;28;20682;-82
2022/11/02 04:29:08;;;;;;;52.27;26.60;;;;;;;;;;6625347;28;20180;-83
2022/11/02 04:33:31;;;;;;;48.93;26.97;;;;;;;;;;6624339;28;20210;-82
2022/11/02 04:35:49;;;;;;;49.47;27.60;;;;;;;;;;6625330;28;20647;-82
2022/11/02 04:38:59;;;;;;;47.70;27.40;;;;;;;;;;6625450;28;20199;-82
2022/11/02 04:42:09;;;;;;;52.40;26.30;;;;;;;;;;6624984;28;20183;-82
2022/11/02 04:45:20;;;;;;;43.87;24.63;;;;;;;;;;6624877;28;20175;-83
2022/11/02 04:48:30;;;;;;;43.70;24.80;;;;;;;;;;6625207;28;20168;-82
2022/11/02 04:51:40;;;;;;;42.47;25.03;;;;;;;;;;6624250;28;20683;-82
2022/11/02 04:54:51;;;;;;;40.43;22.57;;;;;;;;;;6624984;28;20542;-82
2022/11/02 04:58:01;;;;;;;36.30;22.10;;;;;;;;;;6624279;28;20235;-82
2022/11/02 05:01:13;;;;;;;35.00;21.07;;;;;;;;;;6606602;28;20176;-83
2022/11/02 05:04:23;;;;;;;34.33;21.13;;;;;;;;;;6624346;28;20199;-81
2022/11/02 05:07:33;;;;;;;39.17;21.97;;;;;;;;;;6624239;28;20203;-82
2022/11/02 05:10:43;;;;;;;35.30;21.07;;;;;;;;;;6624222;28;20171;-81
2022/11/02 05:13:54;;;;;;;32.47;19.83;;;;;;;;;;6623754;28;20235;-82
2022/11/02 05:17:04;;;;;;;35.60;21.77;;;;;;;;;;6624452;28;20175;-81
2022/11/02 05:20:14;;;;;;;30.50;21.47;;;;;;;;;;6624715;28;20578;-82
2022/11/02 05:23:25;;;;;;;35.80;21.13;;;;;;;;;;6624290;28;20172;-82
2022/11/02 05:26:36;;;;;;;34.50;22.03;;;;;;;;;;6623441;28;20172;-82
2022/11/02 05:29:46;;;;;;;37.30;21.87;;;;;;;;;;6623684;28;20225;-82
2022/11/02 05:32:56;;;;;;;40.70;21.70;;;;;;;;;;6623506;28;20245;-82
2022/11/02 05:36:08;;;;;;;34.87;22.40;;;;;;;;;;6623626;28;20520;-82
2022/11/02 05:39:18;;;;;;;33.97;22.77;;;;;;;;;;6623805;28;20175;-82
2022/11/02 05:42:28;;;;;;;35.43;22.70;;;;;;;;;;6622510;28;20176;-82
2022/11/02 05:45:39;;;;;;;33.67;22.93;;;;;;;;;;6623165;28;20205;-82
2022/11/02 05:48:49;;;;;;;33.27;22.63;;;;;;;;;;6623939;28;20168;-82
2022/11/02 05:51:59;;;;;;;32.07;22.30;;;;;;;;;;6622702;28;20187;-82
2022/11/02 05:55:10;;;;;;;34.00;23.47;;;;;;;;;;6622790;28;20182;-81
2022/11/02 05:58:20;;;;;;;32.37;22.73;;;;;;;;;;6623143;28;20226;-82
2022/11/02 06:01:30;;;;;;;32.20;23.43;;;;;;;;;;6606117;28;20505;-82
2022/11/02 06:04:40;;;;;;;28.43;21.90;;;;;;;;;;6623148;28;20175;-81
2022/11/02 06:07:51;;;;;;;25.90;20.33;;;;;;;;;;6622347;28;20644;-82
2022/11/02 06:11:09;;;;;;;31.63;21.73;;;;;;;;;;6622708;28;20237;-83
2022/11/02 06:14:19;;;;;;;29.87;20.53;;;;;;;;;;6622664;28;20214;-82
2022/11/02 06:17:35;;;;;;;33.83;21.17;;;;;;;;;;6622343;28;20168;-83
2022/11/02 06:20:45;;;;;;;32.47;21.90;;;;;;;;;;6622144;28;20187;-83
2022/11/02 06:23:57;;;;;;;26.20;19.60;;;;;;;;;;6622962;28;20527;-83
2022/11/02 06:27:08;;;;;;;26.87;20.33;;;;;;;;;;6622534;28;20186;-83
2022/11/02 06:30:18;;;;;;;27.83;21.30;;;;;;;;;;6622916;28;20168;-83
2022/11/02 06:33:28;;;;;;;30.33;21.67;;;;;;;;;;6622064;28;20682;-83
2022/11/02 06:36:39;;;;;;;28.93;19.40;;;;;;;;;;6604523;28;20180;-82
2022/11/02 06:39:49;;;;;;;34.57;20.93;;;;;;;;;;6621984;28;20168;-82
2022/11/02 06:42:59;;;;;;;28.40;19.97;;;;;;;;;;6622617;28;20207;-82
2022/11/02 06:46:10;;;;;;;29.07;19.87;;;;;;;;;;6622074;28;20269;-82
2022/11/02 06:49:20;;;;;;;29.77;20.60;;;;;;;;;;6622202;28;20620;-82
2022/11/02 06:52:30;;;;;;;27.93;20.30;;;;;;;;;;6622501;28;20278;-82
2022/11/02 06:55:41;;;;;;;28.33;19.73;;;;;;;;;;6627195;28;20182;-81
2022/11/02 06:58:51;;;;;;;24.87;19.77;;;;;;;;;;6627024;28;20583;-81
2022/11/02 07:02:01;;;;;;;32.60;22.43;;;;;;;;;;6627393;28;20238;-81
2022/11/02 07:05:12;;;;;;;34.07;21.90;;;;;;;;;;6609261;28;20180;-83
2022/11/02 07:08:22;;;;;;;33.10;23.90;;;;;;;;;;6627112;28;20286;-82
2022/11/02 07:11:33;;;;;;;33.97;23.80;;;;;;;;;;6626706;28;20175;-81
2022/11/02 07:14:43;;;;;;;33.03;22.73;;;;;;;;;;6627530;28;20175;-81
2022/11/02 07:17:53;;;;;;;24.80;19.43;;;;;;;;;;6626941;28;20328;-82
2022/11/02 07:21:03;;;;;;;25.20;20.33;;;;;;;;;;6626922;28;20172;-81
2022/11/02 07:24:14;;;;;;;26.70;20.80;;;;;;;;;;6627550;28;20179;-81
2022/11/02 07:27:24;;;;;;;25.53;19.73;;;;;;;;;;6627549;28;20486;-81
2022/11/02 07:30:34;;;;;;;22.93;18.80;;;;;;;;;;6626345;28;20200;-81
2022/11/02 07:33:45;;;;;;;22.97;18.13;;;;;;;;;;6626355;28;20346;-81
2022/11/02 07:36:55;;;;;;;24.87;18.83;;;;;;;;;;6626793;28;20563;-81
2022/11/02 07:40:06;;;;;;;27.47;18.50;;;;;;;;;;6626445;28;20263;-81
2022/11/02 07:43:17;;;;;;;26.10;19.17;;;;;;;;;;6626793;28;20251;-81
2022/11/02 07:46:27;;;;;;;22.00;17.63;;;;;;;;;;6626030;28;20570;-81
2022/11/02 07:49:37;;;;;;;22.77;17.50;;;;;;;;;;6626149;28;20229;-81
2022/11/02 07:52:49;;;;;;;21.03;17.87;;;;;;;;;;6626065;28;20233;-81
2022/11/02 07:55:59;;;;;;;21.53;17.97;;;;;;;;;;6626124;28;20175;-81
2022/11/02 07:59:11;;;;;;;23.60;19.07;;;;;;;;;;6626422;28;20227;-81
2022/11/02 08:02:22;;;;;;;23.13;18.40;;;;;;;;;;6625942;28;20175;-82
2022/11/02 08:05:33;;;;;;;23.10;18.53;;;;;;;;;;6624896;28;20175;-81
2022/11/02 08:08:43;;;;;;;24.63;18.73;;;;;;;;;;6625854;28;20219;-81
2022/11/02 08:11:55;;;;;;;23.60;18.47;;;;;;;;;;6625292;28;20344;-80
2022/11/02 08:15:06;;;;;;;23.93;18.17;;;;;;;;;;6625603;28;20176;-81
2022/11/02 08:18:20;;;;;;;23.20;19.70;;;;;;;;;;6625489;28;20184;-81
2022/11/02 08:21:30;;;;;;;22.47;17.73;;;;;;;;;;6625288;28;20199;-81
2022/11/02 08:24:41;;;;;;;19.63;16.67;;;;;;;;;;6625016;28;20615;-80
2022/11/02 08:27:51;;;;;;;23.30;17.20;;;;;;;;;;6624872;28;20175;-80
2022/11/02 08:31:01;;;;;;;19.07;15.30;;;;;;;;;;6624950;28;20183;-80
2022/11/02 08:34:12;;;;;;;18.13;15.27;;;;;;;;;;6625654;28;20200;-80
2022/11/02 08:37:22;;;;;;;21.10;17.43;;;;;;;;;;6625151;28;20211;-81
2022/11/02 08:40:33;;;;;;;19.33;16.57;;;;;;;;;;6625406;28;20632;-80
2022/11/02 08:43:43;;;;;;;17.73;15.23;;;;;;;;;;6624587;28;20175;-81
2022/11/02 08:46:54;;;;;;;20.63;17.43;;;;;;;;;;6624421;28;20543;-81
2022/11/02 08:50:04;;;;;;;20.70;16.93;;;;;;;;;;6624854;28;20292;-81
2022/11/02 08:53:14;;;;;;;21.48;17.45;;;;;;;;;;6623821;28;20206;-82
2022/11/02 08:56:25;;;;;;;21.93;16.80;;;;;;;;;;6624617;28;20179;-81
2022/11/02 08:59:35;;;;;;;19.63;17.03;;;;;;;;;;6606314;28;20579;-80
2022/11/02 09:03:02;;;;;;;21.80;18.57;;;;;;;;;;6623240;28;20187;-81
2022/11/02 09:06:15;;;;;;;22.93;17.97;;;;;;;;;;6624433;28;20613;-81
2022/11/02 09:09:25;;;;;;;21.97;17.83;;;;;;;;;;6623724;28;20199;-81
2022/11/02 09:12:36;;;;;;;24.10;18.43;;;;;;;;;;6624145;28;20227;-80
2022/11/02 09:15:48;;;;;;;18.73;16.23;;;;;;;;;;6624133;28;20172;-81
2022/11/02 09:18:59;;;;;;;17.88;15.27;;;;;;;;;;6623511;28;20171;-81
2022/11/02 09:22:09;;;;;;;18.52;14.82;;;;;;;;;;6624300;28;20182;-81
2022/11/02 09:25:19;;;;;;;17.13;15.32;;;;;;;;;;6624131;28;20167;-81
2022/11/02 09:28:29;;;;;;;21.20;17.10;;;;;;;;;;6623766;28;20171;-82
2022/11/02 09:31:40;;;;;;;16.90;15.18;;;;;;;;;;6623553;28;20198;-81
2022/11/02 09:34:51;;;;;;;16.00;14.27;;;;;;;;;;6623700;28;20175;-81
2022/11/02 09:38:01;;;;;;;17.23;14.48;;;;;;;;;;6623005;28;20565;-81
2022/11/02 09:41:16;;;;;;;15.45;13.43;;;;;;;;;;6623492;28;20182;-81
2022/11/02 09:44:36;;;;;;;17.17;15.13;;;;;;;;;;6623380;28;20568;-82
2022/11/02 09:47:55;;;;;;;17.15;14.93;;;;;;;;;;6623298;28;20578;-81
2022/11/02 09:51:10;;;;;;;16.05;14.35;;;;;;;;;;6623925;28;20243;-82
2022/11/02 09:54:24;;;;;;;18.23;14.43;;;;;;;;;;6620679;28;20512;-82
2022/11/02 09:57:35;;;;;;;16.95;14.43;;;;;;;;;;6620778;28;20231;-82
2022/11/02 10:00:48;;;;;;;16.45;14.77;;;;;;;;;;6621740;28;20208;-81
2022/11/02 10:04:11;;;;;;;17.65;14.85;;;;;;;;;;6622805;28;20510;-82
2022/11/02 10:07:40;;;;;;;15.68;13.98;;;;;;;;;;6622534;28;20214;-82
2022/11/02 10:10:57;;;;;;;14.65;13.25;;;;;;;;;;6623277;28;20504;-82
2022/11/02 10:14:07;;;;;;;17.10;13.88;;;;;;;;;;6622794;28;20202;-83
2022/11/02 10:17:23;;;;;;;16.95;13.95;;;;;;;;;;6622884;28;20498;-82
2022/11/02 10:20:43;;;;;;;16.10;13.50;;;;;;;;;;6622696;28;20509;-83
2022/11/02 10:23:54;;;;;;;14.98;13.43;;;;;;;;;;6622318;28;20160;-82
2022/11/02 10:27:11;;;;;;;13.95;12.55;;;;;;;;;;6621839;28;20275;-81
2022/11/02 10:30:22;;;;;;;14.43;13.02;;;;;;;;;;6621574;28;20156;-81
2022/11/02 10:33:32;;;;;;;14.53;12.10;;;;;;;;;;6622442;28;20219;-81
2022/11/02 10:36:49;;;;;;;13.53;12.20;;;;;;;;;;6619587;28;20182;-81
2022/11/02 10:40:02;;;;;;;13.67;12.27;;;;;;;;;;6619937;28;20254;-81
2022/11/02 10:43:31;;;;;;;12.73;11.43;;;;;;;;;;6619535;28;20168;-81
2022/11/02 10:46:41;;;;;;;13.48;12.18;;;;;;;;;;6619571;28;20176;-81
2022/11/02 10:50:03;;;;;;;14.48;12.98;;;;;;;;;;6619216;28;20171;-81
2022/11/02 10:53:15;;;;;;;13.25;11.95;;;;;;;;;;6619488;28;20281;-81
2022/11/02 10:56:32;;;;;;;14.80;12.55;;;;;;;;;;6622032;28;20178;-81
2022/11/02 10:59:42;;;;;;;12.75;11.45;;;;;;;;;;6622022;28;20310;-82
2022/11/02 11:03:03;;;;;;;13.40;12.07;;;;;;;;;;6622017;28;20175;-82
2022/11/02 11:06:13;;;;;;;12.30;11.07;;;;;;;;;;6622333;28;20163;-81
2022/11/02 11:09:25;;;;;;;12.15;10.88;;;;;;;;;;6621484;28;20258;-81
2022/11/02 11:12:42;;;;;;;12.13;9.68;;;;;;;;;;6621809;28;20282;-81
2022/11/02 11:15:52;;;;;;;11.63;9.63;;;;;;;;;;6621936;28;20173;-81
2022/11/02 11:19:17;;;;;;;10.65;9.52;;;;;;;;;;6621802;28;20179;-81
2022/11/02 11:22:28;;;;;;;12.55;10.63;;;;;;;;;;6621238;28;20176;-80
2022/11/02 11:25:39;;;;;;;10.38;9.27;;;;;;;;;;6621507;28;20179;-81
2022/11/02 11:28:54;;;;;;;9.50;8.57;;;;;;;;;;6621264;28;20672;-81
2022/11/02 11:32:11;;;;;;;9.37;8.47;;;;;;;;;;6621402;28;20202;-81
2022/11/02 11:35:24;;;;;;;10.30;9.20;;;;;;;;;;6621557;28;20210;-81
2022/11/02 11:38:34;;;;;;;9.07;8.18;;;;;;;;;;6621161;28;20171;-81
2022/11/02 11:41:45;;;;;;;8.60;7.72;;;;;;;;;;6624667;28;20262;-81
2022/11/02 11:44:57;;;;;;;9.85;8.77;;;;;;;;;;6626376;28;20180;-81
2022/11/02 11:48:26;;;;;;;9.70;8.27;;;;;;;;;;6625859;28;20168;-81
2022/11/02 11:51:37;;;;;;;11.43;8.55;;;;;;;;;;6625913;28;20233;-82
2022/11/02 11:54:54;;;;;;;12.68;8.60;;;;;;;;;;6625584;28;20579;-82
2022/11/02 11:58:25;;;;;;;11.45;9.50;;;;;;;;;;6626979;28;20236;-81
2022/11/02 12:01:39;;;;;;;9.15;8.23;;;;;;;;;;6624766;28;20191;-82
2022/11/02 12:04:49;;;;;;;9.30;7.75;;;;;;;;;;6625414;28;20234;-84
2022/11/02 12:08:19;;;;;;;10.70;8.88;;;;;;;;;;6625987;28;20176;-82
2022/11/02 12:12:04;;;;;;;12.93;9.73;;;;;;;;;;6625629;28;20195;-82
2022/11/02 12:15:31;;;;;;;11.27;8.40;;;;;;;;;;6527054;28;20265;-82
2022/11/02 12:18:50;;;;;;;8.90;8.00;;;;;;;;;;6626211;28;20262;-82
2022/11/02 12:22:09;;;;;;;11.30;8.25;;;;;;;;;;6625088;28;20168;-81
2022/11/02 12:25:20;;;;;;;10.73;8.30;;;;;;;;;;6607486;28;20555;-82
2022/11/02 12:28:46;;;;;;;11.70;8.43;;;;;;;;;;6623847;28;20194;-80
2022/11/02 12:32:02;;;;;;;9.63;8.30;;;;;;;;;;6623791;28;20651;-80
2022/11/02 12:35:24;;;;;;;9.82;8.82;;;;;;;;;;6624815;28;20175;-80
2022/11/02 12:38:42;;;;;;;11.77;8.32;;;;;;;;;;6624111;28;20160;-80
2022/11/02 12:42:10;;;;;;;10.18;8.73;;;;;;;;;;6624633;28;20171;-82
2022/11/02 12:45:38;;;;;;;10.48;8.55;;;;;;;;;;6624818;28;20188;-82
2022/11/02 12:49:07;;;;;;;11.32;9.10;;;;;;;;;;6625177;28;20174;-82
2022/11/02 12:52:36;;;;;;;11.07;8.82;;;;;;;;;;6623971;28;20252;-81
2022/11/02 12:55:52;;;;;;;10.77;9.68;;;;;;;;;;6624882;28;20160;-82
2022/11/02 12:59:02;;;;;;;10.10;9.10;;;;;;;;;;6625483;28;20546;-81
2022/11/02 13:02:12;;;;;;;10.38;9.38;;;;;;;;;;6624393;28;20171;-81
2022/11/02 13:05:28;;;;;;;9.88;8.50;;;;;;;;;;6624067;28;20182;-82
2022/11/02 13:08:44;;;;;;;10.07;8.80;;;;;;;;;;6623723;28;20192;-82
2022/11/02 13:11:57;;;;;;;10.13;9.07;;;;;;;;;;6606235;28;20200;-82
2022/11/02 13:15:12;;;;;;;9.70;8.70;;;;;;;;;;6624268;28;20195;-81
2022/11/02 13:18:25;;;;;;;12.65;8.77;;;;;;;;;;6619473;28;20531;-82
2022/11/02 13:21:39;;;;;;;11.77;9.60;;;;;;;;;;6623677;28;20221;-82
2022/11/02 13:24:55;;;;;;;10.85;9.75;;;;;;;;;;6624313;28;20237;-82
2022/11/02 13:28:15;;;;;;;11.85;8.95;;;;;;;;;;6622821;28;20178;-82
2022/11/02 13:31:39;;;;;;;10.48;8.70;;;;;;;;;;6621073;28;20585;-83
2022/11/02 13:34:51;;;;;;;10.00;8.48;;;;;;;;;;6621183;28;20164;-82
2022/11/02 13:38:20;;;;;;;11.90;9.85;;;;;;;;;;6620694;28;20321;-82
2022/11/02 13:41:40;;;;;;;9.53;8.53;;;;;;;;;;6621013;28;20168;-82
2022/11/02 13:44:50;;;;;;;14.02;10.55;;;;;;;;;;6620798;28;20568;-82
2022/11/02 13:48:22;;;;;;;10.53;9.30;;;;;;;;;;6621946;28;20170;-81
2022/11/02 13:51:42;;;;;;;9.27;8.17;;;;;;;;;;6623406;28;20250;-81
2022/11/02 13:54:55;;;;;;;9.07;8.15;;;;;;;;;;6621618;28;20187;-81
2022/11/02 13:58:05;;;;;;;9.63;8.63;;;;;;;;;;6620438;28;20591;-80
2022/11/02 14:01:18;;;;;;;10.73;8.67;;;;;;;;;;6621813;28;20253;-81
2022/11/02 14:04:39;;;;;;;10.27;8.70;;;;;;;;;;6621300;28;20172;-80
2022/11/02 14:07:50;;;;;;;12.07;9.03;;;;;;;;;;6621427;28;20176;-81
2022/11/02 14:11:09;;;;;;;14.20;9.33;;;;;;;;;;6619354;28;20175;-81
2022/11/02 14:14:20;;;;;;;11.20;9.83;;;;;;;;;;6621318;28;20207;-81
2022/11/02 14:17:53;;;;;;;11.17;9.47;;;;;;;;;;6621559;28;20721;-81
2022/11/02 14:21:23;;;;;;;12.87;9.33;;;;;;;;;;6607674;28;20238;-81
2022/11/02 14:24:34;;;;;;;11.00;9.40;;;;;;;;;;6621538;28;20540;-81
2022/11/02 14:27:45;;;;;;;9.10;8.20;;;;;;;;;;6622432;28;20188;-81
2022/11/02 14:31:02;;;;;;;12.60;9.10;;;;;;;;;;6622282;28;20540;-81
2022/11/02 14:34:30;;;;;;;11.13;8.63;;;;;;;;;;6621811;28;20235;-81
2022/11/02 14:37:52;;;;;;;11.30;8.80;;;;;;;;;;6622564;28;20255;-81
2022/11/02 14:41:11;;;;;;;11.63;9.63;;;;;;;;;;6621649;28;20172;-81
2022/11/02 14:44:36;;;;;;;10.13;9.10;;;;;;;;;;6619750;28;20188;-81
2022/11/02 14:47:47;;;;;;;14.50;9.67;;;;;;;;;;6619542;28;20529;-81
2022/11/02 14:50:59;;;;;;;13.40;10.23;;;;;;;;;;6619365;28;20182;-82
2022/11/02 14:54:14;;;;;;;14.63;10.97;;;;;;;;;;6619722;28;20204;-81
2022/11/02 14:57:28;;;;;;;15.93;12.93;;;;;;;;;;6619405;28;20236;-82
2022/11/02 15:00:47;;;;;;;18.70;13.27;;;;;;;;;;6619595;28;20168;-82
2022/11/02 15:04:04;;;;;;;21.07;14.57;;;;;;;;;;6621375;28;20564;-82
2022/11/02 15:07:20;;;;;;;19.53;15.13;;;;;;;;;;6622617;28;20243;-82
2022/11/02 15:10:31;;;;;;;18.63;14.40;;;;;;;;;;6621795;28;20215;-82
2022/11/02 15:13:46;;;;;;;16.97;14.17;;;;;;;;;;6621939;28;20196;-82
2022/11/02 15:16:56;;;;;;;15.73;13.67;;;;;;;;;;6627011;28;20519;-82
2022/11/02 15:20:12;;;;;;;20.50;14.40;;;;;;;;;;6626556;28;20171;-82
2022/11/02 15:23:24;;;;;;;25.73;17.53;;;;;;;;;;6626864;28;20183;-82
2022/11/02 15:26:41;;;;;;;27.73;19.47;;;;;;;;;;6626791;28;20176;-81
2022/11/02 15:29:51;;;;;;;22.93;16.57;;;;;;;;;;6627389;28;20187;-80
2022/11/02 15:33:03;;;;;;;20.47;15.37;;;;;;;;;;6626733;28;20207;-80
2022/11/02 15:36:17;;;;;;;20.57;15.20;;;;;;;;;;6626951;28;20569;-79
2022/11/02 15:39:27;;;;;;;19.13;14.63;;;;;;;;;;6626418;28;20176;-80
2022/11/02 15:42:58;;;;;;;17.57;14.40;;;;;;;;;;6627433;28;20547;-80
2022/11/02 15:46:11;;;;;;;20.27;15.73;;;;;;;;;;6611781;28;20179;-80
2022/11/02 15:49:39;;;;;;;23.33;15.13;;;;;;;;;;6626128;28;20190;-80
2022/11/02 15:53:01;;;;;;;17.13;14.60;;;;;;;;;;6626111;28;20192;-80
2022/11/02 15:56:11;;;;;;;20.57;15.90;;;;;;;;;;6626092;28;20229;-79
2022/11/02 15:59:22;;;;;;;24.27;15.93;;;;;;;;;;6624320;28;20314;-80
2022/11/02 16:02:35;;;;;;;24.53;17.37;;;;;;;;;;6625672;28;20182;-80
2022/11/02 16:05:46;;;;;;;25.03;17.93;;;;;;;;;;6625923;28;20176;-80
2022/11/02 16:08:58;;;;;;;23.23;17.27;;;;;;;;;;6625719;28;20749;-80
2022/11/02 16:12:22;;;;;;;20.67;16.87;;;;;;;;;;6625273;28;20203;-80
2022/11/02 16:15:32;;;;;;;18.63;15.27;;;;;;;;;;6625184;28;20250;-80
2022/11/02 16:18:43;;;;;;;23.53;16.70;;;;;;;;;;6624017;28;20179;-81
2022/11/02 16:21:54;;;;;;;22.13;18.23;;;;;;;;;;6624867;28;20199;-80
2022/11/02 16:25:15;;;;;;;27.83;19.90;;;;;;;;;;6625158;28;20184;-80
2022/11/02 16:28:26;;;;;;;27.57;20.23;;;;;;;;;;6624566;28;20173;-80
2022/11/02 16:31:36;;;;;;;26.90;20.40;;;;;;;;;;6624413;28;20670;-81
2022/11/02 16:34:47;;;;;;;24.33;20.20;;;;;;;;;;6625001;28;20171;-81
2022/11/02 16:37:57;;;;;;;28.73;23.30;;;;;;;;;;6625422;28;20218;-80
2022/11/02 16:41:08;;;;;;;32.10;25.77;;;;;;;;;;6625602;28;20697;-80
2022/11/02 16:44:32;;;;;;;31.70;24.10;;;;;;;;;;6624606;28;20172;-81
2022/11/02 16:47:42;;;;;;;29.57;23.73;;;;;;;;;;6624790;28;20532;-80
2022/11/02 16:50:58;;;;;;;34.30;26.63;;;;;;;;;;6624264;28;20172;-80
2022/11/02 16:54:16;;;;;;;36.03;27.47;;;;;;;;;;6624636;28;20199;-81
2022/11/02 16:57:28;;;;;;;41.40;28.90;;;;;;;;;;6624810;28;20258;-80
2022/11/02 17:00:39;;;;;;;42.23;30.17;;;;;;;;;;6624984;28;20163;-80
2022/11/02 17:03:49;;;;;;;43.20;30.43;;;;;;;;;;6624111;28;20178;-80
2022/11/02 17:07:09;;;;;;;42.30;29.43;;;;;;;;;;6607376;28;20269;-79
2022/11/02 17:10:22;;;;;;;47.73;32.60;;;;;;;;;;6624142;28;20282;-79
2022/11/02 17:13:36;;;;;;;49.43;33.63;;;;;;;;;;6624079;28;20675;-79
2022/11/02 17:16:55;;;;;;;47.57;32.77;;;;;;;;;;6624176;28;20261;-79
2022/11/02 17:20:08;;;;;;;45.20;31.00;;;;;;;;;;6624769;28;20160;-80
2022/11/02 17:23:32;;;;;;;46.27;31.67;;;;;;;;;;6623904;28;20215;-79
2022/11/02 17:26:42;;;;;;;46.53;30.73;;;;;;;;;;6622770;28;20218;-82
2022/11/02 17:29:55;;;;;;;43.03;29.80;;;;;;;;;;6605649;28;20179;-82
2022/11/02 17:33:12;;;;;;;38.03;26.60;;;;;;;;;;6622258;28;20231;-82
2022/11/02 17:36:22;;;;;;;38.40;26.77;;;;;;;;;;6605328;28;20671;-81
2022/11/02 17:39:32;;;;;;;33.37;23.43;;;;;;;;;;6622284;28;20172;-82
2022/11/02 17:42:59;;;;;;;33.47;22.93;;;;;;;;;;6622965;28;20279;-81
2022/11/02 17:46:10;;;;;;;28.37;20.47;;;;;;;;;;6623417;28;20156;-82
2022/11/02 17:49:20;;;;;;;27.40;19.23;;;;;;;;;;6623374;28;20168;-82
2022/11/02 17:52:30;;;;;;;23.20;17.73;;;;;;;;;;6623787;28;20199;-81
2022/11/02 17:55:41;;;;;;;23.87;17.03;;;;;;;;;;6622277;28;20667;-81
2022/11/02 17:58:51;;;;;;;22.60;16.63;;;;;;;;;;6604757;28;20238;-81
2022/11/02 18:02:01;;;;;;;22.10;16.53;;;;;;;;;;6623048;28;20186;-81
2022/11/02 18:05:23;;;;;;;21.43;16.87;;;;;;;;;;6622712;28;20171;-82
2022/11/02 18:09:09;;;;;;;21.83;15.33;;;;;;;;;;6623089;28;20187;-81
2022/11/02 18:12:03;;;;;;;22.37;15.43;;;;;;;;;;6622621;28;20574;-81
2022/11/02 18:15:18;;;;;;;22.07;15.03;;;;;;;;;;6604846;28;20180;-81
2022/11/02 18:18:29;;;;;;;20.90;15.60;;;;;;;;;;6623272;28;20200;-81
2022/11/02 18:21:39;;;;;;;19.77;15.00;;;;;;;;;;6623541;28;20175;-81
2022/11/02 18:24:49;;;;;;;20.87;15.43;;;;;;;;;;6622994;28;20168;-81
2022/11/02 18:28:00;;;;;;;20.37;15.63;;;;;;;;;;6622568;28;20199;-80
2022/11/02 18:31:11;;;;;;;25.90;16.97;;;;;;;;;;6623092;28;20171;-81
2022/11/02 18:34:21;;;;;;;24.97;17.87;;;;;;;;;;6622446;28;20230;-82
2022/11/02 18:37:32;;;;;;;26.23;17.53;;;;;;;;;;6622300;28;20180;-82
2022/11/02 18:40:42;;;;;;;25.00;19.13;;;;;;;;;;6622325;28;20175;-81
2022/11/02 18:43:53;;;;;;;27.23;20.20;;;;;;;;;;6620691;28;20663;-82
2022/11/02 18:47:04;;;;;;;27.73;19.70;;;;;;;;;;6621918;28;20175;-81
2022/11/02 18:50:14;;;;;;;28.23;20.60;;;;;;;;;;6606803;28;20274;-81
2022/11/02 18:53:24;;;;;;;26.37;19.37;;;;;;;;;;6627305;28;20236;-82
2022/11/02 18:56:38;;;;;;;29.20;20.50;;;;;;;;;;6627569;28;20171;-82
2022/11/02 18:59:48;;;;;;;26.13;18.87;;;;;;;;;;6629142;28;20278;-81
2022/11/02 19:02:58;;;;;;;27.63;19.73;;;;;;;;;;6627540;28;20175;-83